createdAt,value
2019-03-21T00:02:00.809Z,15.43
2019-03-21T00:04:31.175Z,15.10
2019-03-21T00:07:00.688Z,18.30
2019-03-21T00:09:30.201Z,13.97
2019-03-21T00:12:08.998Z,17.60
2019-03-21T00:14:52.137Z,15.93
2019-03-21T00:17:37.713Z,14.83
2019-03-21T00:20:14.131Z,19.10
2019-03-21T00:22:43.692Z,13.58
2019-03-21T00:25:17.624Z,14.83
2019-03-21T00:27:47.129Z,13.03
2019-03-21T00:30:27.919Z,11.20
2019-03-21T00:33:16.795Z,13.13
2019-03-21T00:39:10.023Z,11.15
2019-03-21T00:41:58.860Z,15.10
2019-03-21T00:44:28.389Z,12.97
2019-03-21T00:46:57.891Z,12.35
2019-03-21T00:49:27.404Z,14.57
2019-03-21T00:51:57.073Z,12.63
2019-03-21T00:54:26.624Z,14.97
2019-03-21T00:57:15.454Z,11.70
2019-03-21T00:59:55.905Z,13.10
2019-03-21T01:02:44.746Z,10.50
2019-03-21T01:05:27.000Z,14.70
2019-03-21T01:08:15.899Z,12.20
2019-03-21T01:10:58.034Z,11.53
2019-03-21T01:13:34.983Z,17.20
2019-03-21T01:16:04.480Z,12.70
2019-03-21T01:18:37.341Z,13.63
2019-03-21T01:21:06.841Z,10.57
2019-03-21T01:23:36.370Z,14.90
2019-03-21T01:26:09.625Z,16.77
2019-03-21T01:28:39.143Z,13.18
2019-03-21T01:31:08.639Z,10.05
2019-03-21T01:33:38.140Z,9.57
2019-03-21T01:36:08.819Z,15.60
2019-03-21T01:38:38.326Z,15.32
2019-03-21T01:41:18.069Z,12.37
2019-03-21T01:43:47.579Z,14.87
2019-03-21T01:46:24.482Z,12.20
2019-03-21T01:48:54.000Z,14.30
2019-03-21T01:51:23.519Z,13.75
2019-03-21T01:53:55.165Z,12.60
2019-03-21T01:56:25.495Z,14.57
2019-03-21T01:58:55.004Z,13.93
2019-03-21T02:01:24.538Z,13.30
2019-03-21T02:03:54.110Z,13.77
2019-03-21T02:06:23.626Z,11.75
2019-03-21T02:08:53.125Z,12.60
2019-03-21T02:11:22.629Z,13.50
2019-03-21T02:13:52.158Z,18.85
2019-03-21T02:16:21.648Z,12.50
2019-03-21T02:18:51.154Z,14.13
2019-03-21T02:21:21.931Z,14.93
2019-03-21T02:23:51.454Z,14.53
2019-03-21T02:26:21.072Z,14.53
2019-03-21T02:28:50.571Z,11.53
2019-03-21T02:31:20.086Z,17.07
2019-03-21T02:33:49.592Z,10.40
2019-03-21T02:36:19.103Z,12.40
2019-03-21T02:38:48.641Z,14.78
2019-03-21T02:41:18.536Z,14.13
2019-03-21T02:43:48.034Z,13.33
2019-03-21T02:46:18.797Z,14.47
2019-03-21T02:48:48.366Z,14.70
2019-03-21T02:51:17.894Z,14.53
2019-03-21T02:53:47.380Z,16.80
2019-03-21T02:56:24.159Z,16.00
2019-03-21T02:58:53.734Z,13.50
2019-03-21T03:01:43.082Z,12.60
2019-03-21T03:07:13.365Z,14.50
2019-03-21T03:09:42.925Z,16.73
2019-03-21T03:12:12.626Z,15.80
2019-03-21T03:14:42.127Z,15.13
2019-03-21T03:17:11.619Z,14.80
2019-03-21T03:19:41.133Z,13.63
2019-03-21T03:22:10.636Z,17.33
2019-03-21T03:24:40.161Z,16.23
2019-03-21T03:27:09.682Z,17.27
2019-03-21T03:29:39.216Z,13.17
2019-03-21T03:32:08.733Z,14.50
2019-03-21T03:34:38.237Z,14.70
2019-03-21T03:37:07.758Z,14.13
2019-03-21T03:39:37.271Z,13.60
2019-03-21T03:42:06.777Z,15.40
2019-03-21T03:44:36.295Z,15.10
2019-03-21T03:47:05.843Z,14.07
2019-03-21T03:49:35.343Z,14.10
2019-03-21T03:52:04.884Z,13.43
2019-03-21T03:54:35.469Z,11.25
2019-03-21T03:57:05.076Z,14.20
2019-03-21T03:59:34.609Z,14.77
2019-03-21T04:02:04.173Z,12.17
2019-03-21T04:04:33.664Z,12.27
2019-03-21T04:07:03.209Z,16.33
2019-03-21T04:09:32.704Z,12.85
2019-03-21T04:12:02.358Z,18.27
2019-03-21T04:14:31.867Z,13.37
2019-03-21T04:17:01.391Z,13.37
2019-03-21T04:19:30.916Z,12.63
2019-03-21T04:22:00.445Z,13.83
2019-03-21T04:24:30.195Z,12.07
2019-03-21T04:26:59.897Z,12.90
2019-03-21T04:29:29.478Z,16.27
2019-03-21T04:31:58.998Z,17.37
2019-03-21T04:34:28.537Z,12.10
2019-03-21T04:36:58.089Z,12.43
2019-03-21T04:39:27.558Z,9.97
2019-03-21T04:41:57.142Z,13.60
2019-03-21T04:44:26.642Z,12.50
2019-03-21T04:46:56.160Z,10.38
2019-03-21T04:49:25.681Z,11.13
2019-03-21T04:51:55.226Z,11.50
2019-03-21T04:54:24.767Z,15.20
2019-03-21T04:56:54.283Z,13.40
2019-03-21T05:02:44.443Z,11.33
2019-03-21T05:05:15.175Z,14.83
2019-03-21T05:07:44.691Z,12.40
2019-03-21T05:10:16.789Z,12.43
2019-03-21T05:12:46.336Z,16.36
2019-03-21T05:15:23.263Z,11.73
2019-03-21T05:17:57.422Z,14.30
2019-03-21T05:20:30.193Z,12.28
2019-03-21T05:23:00.333Z,12.70
2019-03-21T05:25:29.836Z,11.03
2019-03-21T05:27:59.428Z,14.73
2019-03-21T05:30:42.703Z,18.27
2019-03-21T05:33:12.250Z,15.60
2019-03-21T05:35:41.841Z,16.25
2019-03-21T05:38:51.575Z,13.83
2019-03-21T05:41:21.151Z,18.83
2019-03-21T05:43:57.950Z,13.27
2019-03-21T05:46:27.786Z,14.17
2019-03-21T05:48:57.283Z,12.73
2019-03-21T05:51:26.784Z,13.70
2019-03-21T05:53:56.312Z,15.90
2019-03-21T05:56:25.831Z,15.63
2019-03-21T05:58:55.348Z,11.80
2019-03-21T06:01:24.890Z,10.70
2019-03-21T06:03:54.559Z,12.30
2019-03-21T06:06:49.667Z,11.57
2019-03-21T06:09:22.367Z,13.20
2019-03-21T06:11:56.900Z,14.30
2019-03-21T06:14:26.695Z,14.47
2019-03-21T06:16:56.211Z,10.25
2019-03-21T06:19:33.136Z,12.47
2019-03-21T06:22:25.141Z,11.53
2019-03-21T06:25:28.895Z,10.43
2019-03-21T06:27:58.597Z,11.50
2019-03-21T06:30:28.091Z,10.67
2019-03-21T06:32:57.581Z,11.73
2019-03-21T06:35:27.114Z,8.53
2019-03-21T06:37:56.629Z,8.80
2019-03-21T06:40:26.153Z,9.00
2019-03-21T06:42:55.657Z,10.25
2019-03-21T06:45:25.220Z,8.00
2019-03-21T06:47:54.733Z,8.10
2019-03-21T06:50:24.263Z,9.30
2019-03-21T06:52:54.650Z,8.23
2019-03-21T06:55:24.752Z,9.00
2019-03-21T06:57:54.259Z,9.27
2019-03-21T07:00:25.034Z,8.17
2019-03-21T07:02:54.627Z,12.23
2019-03-21T07:05:26.632Z,10.73
2019-03-21T07:07:55.563Z,8.53
2019-03-21T07:10:25.060Z,8.10
2019-03-21T07:12:54.567Z,8.03
2019-03-21T07:15:24.050Z,10.07
2019-03-21T07:17:53.604Z,7.20
2019-03-21T07:20:23.106Z,11.60
2019-03-21T07:22:52.645Z,7.13
2019-03-21T07:25:22.180Z,7.57
2019-03-21T07:27:51.665Z,7.33
2019-03-21T07:30:21.693Z,6.95
2019-03-21T07:32:51.212Z,6.13
2019-03-21T07:35:20.700Z,7.83
2019-03-21T07:37:50.207Z,7.43
2019-03-21T07:40:19.718Z,5.43
2019-03-21T07:42:49.205Z,7.17
2019-03-21T07:45:18.690Z,5.27
2019-03-21T07:47:48.196Z,5.97
2019-03-21T07:50:17.788Z,6.83
2019-03-21T07:52:47.288Z,7.67
2019-03-21T07:55:18.081Z,5.00
2019-03-21T07:57:47.605Z,5.57
2019-03-21T08:00:18.785Z,5.23
2019-03-21T08:02:48.385Z,5.40
2019-03-21T08:05:18.238Z,4.60
2019-03-21T08:07:47.766Z,5.97
2019-03-21T08:10:17.404Z,5.33
2019-03-21T08:12:46.918Z,5.03
2019-03-21T08:15:17.625Z,7.50
2019-03-21T08:17:47.193Z,4.37
2019-03-21T08:20:18.413Z,5.60
2019-03-21T08:22:47.921Z,6.07
2019-03-21T08:25:17.416Z,5.53
2019-03-21T08:27:46.963Z,5.70
2019-03-21T08:30:26.785Z,6.40
2019-03-21T08:32:56.292Z,5.60
2019-03-21T08:35:25.784Z,4.97
2019-03-21T08:37:55.295Z,4.33
2019-03-21T08:40:24.816Z,5.00
2019-03-21T08:42:54.322Z,4.20
2019-03-21T08:45:23.811Z,4.43
2019-03-21T08:47:53.350Z,5.03
2019-03-21T08:50:22.859Z,4.47
2019-03-21T08:52:52.364Z,4.67
2019-03-21T08:55:21.879Z,3.70
2019-03-21T08:57:51.394Z,4.90
2019-03-21T09:00:21.012Z,4.93
2019-03-21T09:02:50.518Z,7.07
2019-03-21T09:05:20.042Z,5.07
2019-03-21T09:07:49.577Z,5.53
2019-03-21T09:10:19.066Z,6.23
2019-03-21T09:12:48.619Z,3.84
2019-03-21T09:15:19.379Z,5.50
2019-03-21T09:17:48.896Z,6.00
2019-03-21T09:20:19.016Z,4.45
2019-03-21T09:22:48.582Z,8.08
2019-03-21T09:25:18.082Z,7.58
2019-03-21T09:27:48.014Z,6.00
2019-03-21T09:30:17.737Z,4.00
2019-03-21T09:32:47.296Z,4.57
2019-03-21T09:35:16.766Z,4.17
2019-03-21T09:37:46.301Z,6.42
2019-03-21T09:40:17.106Z,5.17
2019-03-21T09:42:46.614Z,6.83
2019-03-21T09:45:16.248Z,6.73
2019-03-21T09:47:45.780Z,5.93
2019-03-21T09:50:27.397Z,3.67
2019-03-21T09:52:56.975Z,4.50
2019-03-21T09:55:26.661Z,2.72
2019-03-21T09:57:57.416Z,5.43
2019-03-21T10:00:37.204Z,3.70
2019-03-21T10:03:07.227Z,8.60
2019-03-21T10:05:36.823Z,4.20
2019-03-21T10:08:06.599Z,4.57
2019-03-21T10:10:36.251Z,5.57
2019-03-21T10:13:06.589Z,5.57
2019-03-21T10:15:36.127Z,5.90
2019-03-21T10:18:06.049Z,5.63
2019-03-21T10:20:35.545Z,7.60
2019-03-21T10:23:05.114Z,3.73
2019-03-21T10:25:34.598Z,6.90
2019-03-21T10:28:04.261Z,3.83
2019-03-21T10:30:37.291Z,5.73
2019-03-21T10:33:10.194Z,5.40
2019-03-21T10:35:39.798Z,5.33
2019-03-21T10:38:09.443Z,5.37
2019-03-21T10:40:39.240Z,5.80
2019-03-21T10:43:10.555Z,6.80
2019-03-21T10:45:40.358Z,4.27
2019-03-21T10:48:09.857Z,5.30
2019-03-21T10:50:41.596Z,7.00
2019-03-21T10:53:11.344Z,5.53
2019-03-21T10:55:40.894Z,5.07
2019-03-21T10:58:10.491Z,5.15
2019-03-21T11:00:40.082Z,7.15
2019-03-21T11:03:09.601Z,6.12
2019-03-21T11:05:39.225Z,5.70
2019-03-21T11:08:08.784Z,4.97
2019-03-21T11:10:38.291Z,5.30
2019-03-21T11:13:07.877Z,6.42
2019-03-21T11:15:37.379Z,8.25
2019-03-21T11:18:06.998Z,5.27
2019-03-21T11:20:40.448Z,5.27
2019-03-21T11:23:10.112Z,5.80
2019-03-21T11:25:40.441Z,4.54
2019-03-21T11:28:12.137Z,5.75
2019-03-21T11:30:43.457Z,4.92
2019-03-21T11:33:13.032Z,4.75
2019-03-21T11:35:42.542Z,5.30
2019-03-21T11:38:12.112Z,5.37
2019-03-21T11:40:41.691Z,6.03
2019-03-21T11:43:11.595Z,4.95
2019-03-21T11:45:41.113Z,6.00
2019-03-21T11:48:10.635Z,5.67
2019-03-21T11:50:40.153Z,5.47
2019-03-21T11:53:09.644Z,10.98
2019-03-21T11:55:39.153Z,6.03
2019-03-21T11:58:27.996Z,6.03
2019-03-21T12:00:57.508Z,5.87
2019-03-21T12:03:27.000Z,5.42
2019-03-21T12:05:56.532Z,6.83
2019-03-21T12:08:26.049Z,5.53
2019-03-21T12:10:55.997Z,6.75
2019-03-21T12:13:25.512Z,5.42
2019-03-21T12:15:55.025Z,6.73
2019-03-21T12:18:24.515Z,4.50
2019-03-21T12:20:54.017Z,4.40
2019-03-21T12:23:24.475Z,5.76
2019-03-21T12:25:54.037Z,6.47
2019-03-21T12:28:23.512Z,5.67
2019-03-21T12:30:53.092Z,6.80
2019-03-21T12:33:22.611Z,4.70
2019-03-21T12:35:52.124Z,5.08
2019-03-21T12:38:21.611Z,6.12
2019-03-21T12:40:51.180Z,4.20
2019-03-21T12:46:41.494Z,4.67
2019-03-21T12:49:11.045Z,8.05
2019-03-21T12:51:40.554Z,5.08
2019-03-21T12:54:10.063Z,6.77
2019-03-21T12:56:39.601Z,5.83
2019-03-21T12:59:09.151Z,7.65
2019-03-21T13:01:38.701Z,4.10
2019-03-21T13:04:08.223Z,6.33
2019-03-21T13:06:37.730Z,6.15
2019-03-21T13:09:08.688Z,5.10
2019-03-21T13:11:38.224Z,6.50
2019-03-21T13:14:07.700Z,4.87
2019-03-21T13:16:37.217Z,5.20
2019-03-21T13:19:06.702Z,6.23
2019-03-21T13:21:55.573Z,5.80
2019-03-21T13:24:25.061Z,7.33
2019-03-21T13:26:54.567Z,7.28
2019-03-21T13:29:25.138Z,5.55
2019-03-21T13:31:54.744Z,7.60
2019-03-21T13:34:24.228Z,5.07
2019-03-21T13:36:53.733Z,7.28
2019-03-21T13:39:23.226Z,7.15
2019-03-21T13:41:52.737Z,8.20
2019-03-21T13:44:22.244Z,5.67
2019-03-21T13:46:51.758Z,6.10
2019-03-21T13:49:21.277Z,6.73
2019-03-21T13:51:50.782Z,4.75
2019-03-21T13:54:20.281Z,6.33
2019-03-21T13:56:49.780Z,6.57
2019-03-21T13:59:19.296Z,4.97
2019-03-21T14:01:48.838Z,6.07
2019-03-21T14:04:18.385Z,6.07
2019-03-21T14:06:47.893Z,7.77
2019-03-21T14:09:20.365Z,6.20
2019-03-21T14:11:49.931Z,6.47
2019-03-21T14:14:19.421Z,7.30
2019-03-21T14:16:50.950Z,5.77
2019-03-21T14:19:20.208Z,4.90
2019-03-21T14:21:49.715Z,6.83
2019-03-21T14:24:19.211Z,4.20
2019-03-21T14:26:48.724Z,5.80
2019-03-21T14:29:18.215Z,5.73
2019-03-21T14:31:47.724Z,6.85
2019-03-21T14:34:17.225Z,7.07
2019-03-21T14:36:46.738Z,4.63
2019-03-21T14:39:16.227Z,5.13
2019-03-21T14:41:45.709Z,6.33
2019-03-21T14:44:15.239Z,5.43
2019-03-21T14:46:44.737Z,6.20
2019-03-21T14:49:14.250Z,6.90
2019-03-21T14:51:43.774Z,5.47
2019-03-21T14:54:13.284Z,7.50
2019-03-21T14:56:42.759Z,6.13
2019-03-21T14:59:12.341Z,6.13
2019-03-21T15:01:41.819Z,5.30
2019-03-21T15:04:11.356Z,6.28
2019-03-21T15:06:40.843Z,7.77
2019-03-21T15:09:10.386Z,7.60
2019-03-21T15:11:41.167Z,7.22
2019-03-21T15:14:10.728Z,5.67
2019-03-21T15:16:40.206Z,6.87
2019-03-21T15:19:09.741Z,8.00
2019-03-21T15:21:39.226Z,9.00
2019-03-21T15:24:10.267Z,9.08
2019-03-21T15:26:39.749Z,6.97
2019-03-21T15:29:09.235Z,6.28
2019-03-21T15:31:38.756Z,8.80
2019-03-21T15:34:08.252Z,6.50
2019-03-21T15:36:39.071Z,7.10
2019-03-21T15:39:09.519Z,7.07
2019-03-21T15:41:39.308Z,6.87
2019-03-21T15:44:08.815Z,6.92
2019-03-21T15:46:38.511Z,8.27
2019-03-21T15:49:08.293Z,9.13
2019-03-21T15:51:37.769Z,7.10
2019-03-21T15:54:07.291Z,7.17
2019-03-21T15:56:36.792Z,10.97
2019-03-21T15:59:06.310Z,8.37
2019-03-21T16:01:36.841Z,10.15
2019-03-21T16:04:06.441Z,8.73
2019-03-21T16:06:35.995Z,9.37
2019-03-21T16:09:07.480Z,11.37
2019-03-21T16:11:36.963Z,9.83
2019-03-21T16:14:06.465Z,9.13
2019-03-21T16:16:36.045Z,10.10
2019-03-21T16:19:05.849Z,10.40
2019-03-21T16:21:35.333Z,11.73
2019-03-21T16:24:05.801Z,6.13
2019-03-21T16:26:36.790Z,9.07
2019-03-21T16:29:06.491Z,9.73
2019-03-21T16:31:36.031Z,8.20
2019-03-21T16:34:05.544Z,8.83
2019-03-21T16:36:35.045Z,6.53
2019-03-21T16:39:06.587Z,12.12
2019-03-21T16:41:36.131Z,9.47
2019-03-21T16:44:05.692Z,9.70
2019-03-21T16:46:35.205Z,12.93
2019-03-21T16:49:04.684Z,9.03
2019-03-21T16:52:06.516Z,8.23
2019-03-21T16:54:36.085Z,10.33
2019-03-21T16:57:05.595Z,7.90
2019-03-21T16:59:35.122Z,10.67
2019-03-21T17:02:04.665Z,10.83
2019-03-21T17:04:34.171Z,11.13
2019-03-21T17:07:03.654Z,9.57
2019-03-21T17:09:33.163Z,7.70
2019-03-21T17:12:02.671Z,9.73
2019-03-21T17:14:32.173Z,12.70
2019-03-21T17:17:01.664Z,8.13
2019-03-21T17:19:31.306Z,9.20
2019-03-21T17:22:00.792Z,11.65
2019-03-21T17:24:30.478Z,12.67
2019-03-21T17:26:59.948Z,10.63
2019-03-21T17:29:29.481Z,13.13
2019-03-21T17:31:58.991Z,11.43
2019-03-21T17:34:28.533Z,11.73
2019-03-21T17:36:58.087Z,10.48
2019-03-21T17:39:27.646Z,15.93
2019-03-21T17:41:57.141Z,13.37
2019-03-21T17:44:26.644Z,11.63
2019-03-21T17:46:56.128Z,11.73
2019-03-21T17:49:25.633Z,12.37
2019-03-21T17:51:55.126Z,13.00
2019-03-21T17:54:24.635Z,10.27
2019-03-21T17:56:55.147Z,13.70
2019-03-21T17:59:24.710Z,11.77
2019-03-21T18:01:54.462Z,10.37
2019-03-21T18:04:24.162Z,11.23
2019-03-21T18:06:53.643Z,14.17
2019-03-21T18:09:23.312Z,9.67
2019-03-21T18:11:52.848Z,12.47
2019-03-21T18:14:22.352Z,12.33
2019-03-21T18:16:53.123Z,11.57
2019-03-21T18:19:22.634Z,10.27
2019-03-21T18:21:52.199Z,14.40
2019-03-21T18:24:21.963Z,9.77
2019-03-21T18:26:51.449Z,15.60
2019-03-21T18:29:21.033Z,10.33
2019-03-21T18:31:50.533Z,15.98
2019-03-21T18:34:20.563Z,10.40
2019-03-21T18:36:50.048Z,12.27
2019-03-21T18:39:19.542Z,12.40
2019-03-21T18:41:49.081Z,9.73
2019-03-21T18:44:18.589Z,12.37
2019-03-21T18:46:48.742Z,10.13
2019-03-21T18:49:18.240Z,11.27
2019-03-21T18:51:47.764Z,11.57
2019-03-21T18:54:17.262Z,12.33
2019-03-21T18:56:46.775Z,11.10
2019-03-21T18:59:16.911Z,12.18
2019-03-21T19:01:57.688Z,9.87
2019-03-21T19:04:17.647Z,13.67
2019-03-21T19:06:47.177Z,17.48
2019-03-21T19:09:16.678Z,14.10
2019-03-21T19:11:46.184Z,11.93
2019-03-21T19:14:15.683Z,11.13
2019-03-21T19:16:45.214Z,12.07
2019-03-21T19:19:14.709Z,13.03
2019-03-21T19:21:44.224Z,14.90
2019-03-21T19:24:14.335Z,13.80
2019-03-21T19:26:43.912Z,14.47
2019-03-21T19:29:15.082Z,13.75
2019-03-21T19:31:44.722Z,10.15
2019-03-21T19:34:14.206Z,12.60
2019-03-21T19:36:43.986Z,11.87
2019-03-21T19:39:13.476Z,14.80
2019-03-21T19:41:44.619Z,10.30
2019-03-21T19:44:14.121Z,11.27
2019-03-21T19:46:43.629Z,13.53
2019-03-21T19:49:13.189Z,17.77
2019-03-21T19:51:42.706Z,12.13
2019-03-21T19:54:12.195Z,12.20
2019-03-21T19:56:41.715Z,11.17
2019-03-21T19:59:11.221Z,13.28
2019-03-21T20:01:40.742Z,14.40
2019-03-21T20:04:10.253Z,14.63
2019-03-21T20:06:39.782Z,13.60
2019-03-21T20:09:09.265Z,14.87
2019-03-21T20:11:38.930Z,14.45
2019-03-21T20:14:08.457Z,17.10
2019-03-21T20:16:57.297Z,12.87
2019-03-21T20:19:26.789Z,11.97
2019-03-21T20:21:56.338Z,12.87
2019-03-21T20:24:25.822Z,13.40
2019-03-21T20:26:55.531Z,12.37
2019-03-21T20:29:25.054Z,14.57
2019-03-21T20:31:54.562Z,17.00
2019-03-21T20:34:24.080Z,14.80
2019-03-21T20:36:53.584Z,14.73
2019-03-21T20:39:23.072Z,14.90
2019-03-21T20:41:52.581Z,11.57
2019-03-21T20:44:22.079Z,16.23
2019-03-21T20:46:51.621Z,17.73
2019-03-21T20:49:21.267Z,17.27
2019-03-21T20:51:50.802Z,15.10
2019-03-21T20:54:20.321Z,17.47
2019-03-21T20:56:49.845Z,18.70
2019-03-21T20:59:19.340Z,14.17
2019-03-21T21:01:48.838Z,15.83
2019-03-21T21:04:37.671Z,15.30
2019-03-21T21:07:07.327Z,15.70
2019-03-21T21:09:36.886Z,15.47
2019-03-21T21:12:06.440Z,17.23
2019-03-21T21:14:36.057Z,14.50
2019-03-21T21:17:05.573Z,15.60
2019-03-21T21:19:35.492Z,13.62
2019-03-21T21:22:05.081Z,13.03
2019-03-21T21:24:34.587Z,13.17
2019-03-21T21:27:04.470Z,15.23
2019-03-21T21:29:33.999Z,14.95
2019-03-21T21:32:03.525Z,13.17
2019-03-21T21:34:33.071Z,14.23
2019-03-21T21:37:02.603Z,13.10
2019-03-21T21:39:32.095Z,15.13
2019-03-21T21:42:01.610Z,18.07
2019-03-21T21:44:31.113Z,16.20
2019-03-21T21:47:00.636Z,17.87
2019-03-21T21:49:30.145Z,17.73
2019-03-21T21:51:59.665Z,16.27
2019-03-21T21:54:29.491Z,12.85
2019-03-21T21:56:58.989Z,13.30
2019-03-21T21:59:28.484Z,13.77
2019-03-21T22:01:58.007Z,14.28
2019-03-21T22:04:27.497Z,16.57
2019-03-21T22:06:57.528Z,17.13
2019-03-21T22:09:27.066Z,16.93
2019-03-21T22:11:56.562Z,18.07
2019-03-21T22:14:26.082Z,18.55
2019-03-21T22:16:55.606Z,16.83
2019-03-21T22:19:25.202Z,18.77
2019-03-21T22:21:54.694Z,15.23
2019-03-21T22:24:24.257Z,18.57
2019-03-21T22:26:53.745Z,18.07
2019-03-21T22:29:23.394Z,19.13
2019-03-21T22:31:52.903Z,17.27
2019-03-21T22:34:22.433Z,16.63
2019-03-21T22:36:51.930Z,16.83
2019-03-21T22:39:21.457Z,17.12
2019-03-21T22:41:51.706Z,16.17
2019-03-21T22:44:21.221Z,18.57
2019-03-21T22:46:50.737Z,17.13
2019-03-21T22:49:20.260Z,18.48
2019-03-21T22:52:09.106Z,20.37
2019-03-21T22:54:38.633Z,20.17
2019-03-21T22:57:08.136Z,24.70
2019-03-21T22:59:37.695Z,18.13
2019-03-21T23:02:26.555Z,16.97
2019-03-21T23:04:56.070Z,21.07
2019-03-21T23:07:25.670Z,20.57
2019-03-21T23:09:55.184Z,16.53
2019-03-21T23:12:24.686Z,18.27
2019-03-21T23:14:54.209Z,18.87
2019-03-21T23:17:23.711Z,17.90
2019-03-21T23:19:54.066Z,19.07
2019-03-21T23:22:23.563Z,19.13
2019-03-21T23:24:53.089Z,16.70
2019-03-21T23:27:22.591Z,19.80
2019-03-21T23:29:52.108Z,19.83
2019-03-21T23:32:22.378Z,19.62
2019-03-21T23:34:51.909Z,18.33
2019-03-21T23:37:21.438Z,20.10
2019-03-21T23:39:51.022Z,16.83
2019-03-21T23:42:20.548Z,17.77
2019-03-21T23:44:50.770Z,17.15
2019-03-21T23:47:20.267Z,21.57
2019-03-21T23:49:49.783Z,21.10
2019-03-21T23:52:19.283Z,20.35
2019-03-21T23:54:48.801Z,21.27
2019-03-21T23:57:18.299Z,20.43
2019-03-21T23:59:47.818Z,17.50
